sensor_id;sensor_type;location;lat;lon;timestamp;pressure;altitude;pressure_sealevel;temperature;humidity
72157;BME280;60035;52.122;5.406;2023-02-16T00:01:32;102579.84;;;4.82;91.31
72157;BME280;60035;52.122;5.406;2023-02-16T00:04:00;102578.13;;;4.81;91.77
72157;BME280;60035;52.122;5.406;2023-02-16T00:06:28;102578.91;;;4.78;91.29
72157;BME280;60035;52.122;5.406;2023-02-16T00:08:55;102572.97;;;4.76;91.48
72157;BME280;60035;52.122;5.406;2023-02-16T00:11:33;102579.72;;;4.77;91.70
72157;BME280;60035;52.122;5.406;2023-02-16T00:14:21;102574.63;;;4.76;91.60
72157;BME280;60035;52.122;5.406;2023-02-16T00:16:49;102576.31;;;4.75;91.87
72157;BME280;60035;52.122;5.406;2023-02-16T00:19:19;102573.78;;;4.75;91.89
72157;BME280;60035;52.122;5.406;2023-02-16T00:21:47;102580.53;;;4.75;92.19
72157;BME280;60035;52.122;5.406;2023-02-16T00:24:15;102574.63;;;4.76;92.34
72157;BME280;60035;52.122;5.406;2023-02-16T00:26:42;102581.38;;;4.74;92.39
72157;BME280;60035;52.122;5.406;2023-02-16T00:29:30;102574.63;;;4.76;92.48
72157;BME280;60035;52.122;5.406;2023-02-16T00:31:59;102578.84;;;4.75;92.20
72157;BME280;60035;52.122;5.406;2023-02-16T00:34:33;102583.84;;;4.72;92.47
72157;BME280;60035;52.122;5.406;2023-02-16T00:37:02;102582.16;;;4.71;92.62
72157;BME280;60035;52.122;5.406;2023-02-16T00:39:29;102576.13;;;4.67;92.22
72157;BME280;60035;52.122;5.406;2023-02-16T00:42:11;102578.63;;;4.64;92.48
72157;BME280;60035;52.122;5.406;2023-02-16T00:44:41;102570.16;;;4.65;92.74
72157;BME280;60035;52.122;5.406;2023-02-16T00:47:18;102571.09;;;4.69;92.97
72157;BME280;60035;52.122;5.406;2023-02-16T00:49:46;102560.91;;;4.67;93.13
72157;BME280;60035;52.122;5.406;2023-02-16T00:52:39;102560.06;;;4.67;93.08
72157;BME280;60035;52.122;5.406;2023-02-16T00:55:11;102568.50;;;4.66;93.32
72157;BME280;60035;52.122;5.406;2023-02-16T00:58:21;102567.72;;;4.69;93.03
72157;BME280;60035;52.122;5.406;2023-02-16T01:00:57;102571.84;;;4.65;92.91
72157;BME280;60035;52.122;5.406;2023-02-16T01:03:27;102566.75;;;4.63;93.21
72157;BME280;60035;52.122;5.406;2023-02-16T01:05:55;102560.09;;;4.69;93.66
72157;BME280;60035;52.122;5.406;2023-02-16T01:08:40;102565.19;;;4.69;93.23
72157;BME280;60035;52.122;5.406;2023-02-16T01:11:26;102556.66;;;4.66;93.39
72157;BME280;60035;52.122;5.406;2023-02-16T01:13:54;102554.91;;;4.64;93.36
72157;BME280;60035;52.122;5.406;2023-02-16T01:16:23;102551.50;;;4.62;93.27
72157;BME280;60035;52.122;5.406;2023-02-16T01:18:51;102556.56;;;4.62;93.13
72157;BME280;60035;52.122;5.406;2023-02-16T01:21:18;102562.47;;;4.62;93.26
72157;BME280;60035;52.122;5.406;2023-02-16T01:23:47;102554.84;;;4.61;93.40
72157;BME280;60035;52.122;5.406;2023-02-16T01:26:16;102551.38;;;4.57;93.68
72157;BME280;60035;52.122;5.406;2023-02-16T01:28:44;102547.13;;;4.56;93.30
72157;BME280;60035;52.122;5.406;2023-02-16T01:31:11;102549.59;;;4.53;93.43
72157;BME280;60035;52.122;5.406;2023-02-16T01:33:40;102554.63;;;4.52;93.72
72157;BME280;60035;52.122;5.406;2023-02-16T01:36:27;102549.56;;;4.52;93.96
72157;BME280;60035;52.122;5.406;2023-02-16T01:38:55;102542.78;;;4.52;93.70
72157;BME280;60035;52.122;5.406;2023-02-16T01:41:45;102544.53;;;4.55;93.90
72157;BME280;60035;52.122;5.406;2023-02-16T01:44:22;102534.38;;;4.53;93.84
72157;BME280;60035;52.122;5.406;2023-02-16T01:47:15;102533.53;;;4.53;93.94
72157;BME280;60035;52.122;5.406;2023-02-16T01:49:44;102531.00;;;4.53;94.25
72157;BME280;60035;52.122;5.406;2023-02-16T01:52:19;102537.72;;;4.52;93.94
72157;BME280;60035;52.122;5.406;2023-02-16T01:54:57;102531.81;;;4.52;94.21
72157;BME280;60035;52.122;5.406;2023-02-16T01:57:41;102533.53;;;4.53;94.28
72157;BME280;60035;52.122;5.406;2023-02-16T02:01:11;102534.34;;;4.52;94.06
72157;BME280;60035;52.122;5.406;2023-02-16T02:03:32;102529.34;;;4.56;94.03
72157;BME280;60035;52.122;5.406;2023-02-16T02:06:32;102524.38;;;4.59;94.09
72157;BME280;60035;52.122;5.406;2023-02-16T02:09:07;102518.44;;;4.60;94.50
72157;BME280;60035;52.122;5.406;2023-02-16T02:11:42;102518.50;;;4.62;94.43
72157;BME280;60035;52.122;5.406;2023-02-16T02:14:18;102513.56;;;4.68;94.61
72157;BME280;60035;52.122;5.406;2023-02-16T02:16:57;102513.69;;;4.74;94.29
72157;BME280;60035;52.122;5.406;2023-02-16T02:19:24;102513.75;;;4.77;94.14
72157;BME280;60035;52.122;5.406;2023-02-16T02:27:59;102508.88;;;4.87;94.39
72157;BME280;60035;52.122;5.406;2023-02-16T02:36:18;102500.59;;;4.95;94.03
72157;BME280;60035;52.122;5.406;2023-02-16T02:38:52;102496.44;;;4.97;94.03
72157;BME280;60035;52.122;5.406;2023-02-16T02:44:27;102498.28;;;5.06;93.71
72157;BME280;60035;52.122;5.406;2023-02-16T02:46:54;102489.78;;;5.04;93.79
72157;BME280;60035;52.122;5.406;2023-02-16T02:49:21;102489.84;;;5.07;93.59
72157;BME280;60035;52.122;5.406;2023-02-16T02:51:49;102489.84;;;5.07;93.22
72157;BME280;60035;52.122;5.406;2023-02-16T02:54:19;102486.50;;;5.08;93.17
72157;BME280;60035;52.122;5.406;2023-02-16T02:57:20;102479.72;;;5.09;93.09
72157;BME280;60035;52.122;5.406;2023-02-16T03:00:24;102489.06;;;5.10;92.94
72157;BME280;60035;52.122;5.406;2023-02-16T03:03:48;102473.03;;;5.12;93.00
72157;BME280;60035;52.122;5.406;2023-02-16T03:06:20;102472.16;;;5.12;92.89
72157;BME280;60035;52.122;5.406;2023-02-16T03:08:54;102468.75;;;5.11;92.46
72157;BME280;60035;52.122;5.406;2023-02-16T03:11:26;102466.19;;;5.10;92.75
72157;BME280;60035;52.122;5.406;2023-02-16T03:14:35;102467.03;;;5.09;92.64
72157;BME280;60035;52.122;5.406;2023-02-16T03:17:10;102463.63;;;5.08;92.70
72157;BME280;60035;52.122;5.406;2023-02-16T03:19:57;102462.78;;;5.09;92.58
72157;BME280;60035;52.122;5.406;2023-02-16T03:22:43;102457.78;;;5.12;92.63
72157;BME280;60035;52.122;5.406;2023-02-16T03:25:32;102449.34;;;5.13;92.38
72157;BME280;60035;52.122;5.406;2023-02-16T03:28:21;102448.50;;;5.14;92.48
72157;BME280;60035;52.122;5.406;2023-02-16T03:31:10;102442.59;;;5.15;92.19
72157;BME280;60035;52.122;5.406;2023-02-16T03:33:38;102457.00;;;5.16;92.21
72157;BME280;60035;52.122;5.406;2023-02-16T03:36:06;102456.19;;;5.17;92.45
72157;BME280;60035;52.122;5.406;2023-02-16T03:38:33;102456.19;;;5.17;92.26
72157;BME280;60035;52.122;5.406;2023-02-16T03:41:00;102462.97;;;5.18;92.35
72157;BME280;60035;52.122;5.406;2023-02-16T03:43:27;102458.78;;;5.21;92.16
72157;BME280;60035;52.122;5.406;2023-02-16T03:45:54;102451.22;;;5.24;92.21
72157;BME280;60035;52.122;5.406;2023-02-16T03:48:21;102452.09;;;5.24;92.38
72157;BME280;60035;52.122;5.406;2023-02-16T03:50:47;102461.44;;;5.25;92.33
72157;BME280;60035;52.122;5.406;2023-02-16T03:53:14;102462.28;;;5.26;92.26
72157;BME280;60035;52.122;5.406;2023-02-16T03:55:45;102461.44;;;5.27;92.18
72157;BME280;60035;52.122;5.406;2023-02-16T03:58:15;102470.81;;;5.29;92.31
72157;BME280;60035;52.122;5.406;2023-02-16T04:00:42;102468.28;;;5.31;92.04
72157;BME280;60035;52.122;5.406;2023-02-16T04:03:09;102468.28;;;5.31;92.31
72157;BME280;60035;52.122;5.406;2023-02-16T04:05:36;102469.13;;;5.31;92.08
72157;BME280;60035;52.122;5.406;2023-02-16T04:08:03;102465.81;;;5.34;92.08
72157;BME280;60035;52.122;5.406;2023-02-16T04:10:30;102468.38;;;5.36;92.12
72157;BME280;60035;52.122;5.406;2023-02-16T04:12:57;102473.53;;;5.40;92.17
72157;BME280;60035;52.122;5.406;2023-02-16T04:15:26;102477.81;;;5.43;92.00
72157;BME280;60035;52.122;5.406;2023-02-16T04:17:53;102469.38;;;5.44;91.64
72157;BME280;60035;52.122;5.406;2023-02-16T04:20:23;102466.88;;;5.45;91.63
72157;BME280;60035;52.122;5.406;2023-02-16T04:22:50;102467.72;;;5.46;91.79
72157;BME280;60035;52.122;5.406;2023-02-16T04:25:17;102475.34;;;5.47;91.37
72157;BME280;60035;52.122;5.406;2023-02-16T04:27:45;102469.44;;;5.48;91.25
72157;BME280;60035;52.122;5.406;2023-02-16T04:30:16;102458.47;;;5.49;91.53
72157;BME280;60035;52.122;5.406;2023-02-16T04:32:44;102465.28;;;5.50;91.51
72157;BME280;60035;52.122;5.406;2023-02-16T04:35:10;102455.94;;;5.51;91.45
72157;BME280;60035;52.122;5.406;2023-02-16T04:37:37;102456.78;;;5.51;91.71
72157;BME280;60035;52.122;5.406;2023-02-16T04:40:06;102471.19;;;5.51;90.96
72157;BME280;60035;52.122;5.406;2023-02-16T04:42:33;102468.66;;;5.51;91.50
72157;BME280;60035;52.122;5.406;2023-02-16T04:44:59;102472.03;;;5.51;91.46
72157;BME280;60035;52.122;5.406;2023-02-16T04:47:26;102466.13;;;5.51;91.17
72157;BME280;60035;52.122;5.406;2023-02-16T04:49:53;102472.88;;;5.50;91.11
72157;BME280;60035;52.122;5.406;2023-02-16T04:52:20;102470.34;;;5.50;91.37
72157;BME280;60035;52.122;5.406;2023-02-16T04:54:47;102456.78;;;5.51;91.91
72157;BME280;60035;52.122;5.406;2023-02-16T04:57:14;102458.50;;;5.53;91.53
72157;BME280;60035;52.122;5.406;2023-02-16T04:59:41;102458.50;;;5.53;91.47
72157;BME280;60035;52.122;5.406;2023-02-16T05:02:07;102459.38;;;5.53;91.24
72157;BME280;60035;52.122;5.406;2023-02-16T05:04:34;102453.44;;;5.53;91.65
72157;BME280;60035;52.122;5.406;2023-02-16T05:07:01;102455.97;;;5.53;91.63
72157;BME280;60035;52.122;5.406;2023-02-16T05:09:27;102455.16;;;5.54;91.60
72157;BME280;60035;52.122;5.406;2023-02-16T05:11:54;102444.13;;;5.53;91.73
72157;BME280;60035;52.122;5.406;2023-02-16T05:14:39;102447.53;;;5.55;91.78
72157;BME280;60035;52.122;5.406;2023-02-16T05:17:11;102442.47;;;5.55;91.96
72157;BME280;60035;52.122;5.406;2023-02-16T05:19:38;102427.22;;;5.55;91.76
72157;BME280;60035;52.122;5.406;2023-02-16T05:22:06;102438.25;;;5.56;91.64
72157;BME280;60035;52.122;5.406;2023-02-16T05:24:33;102428.94;;;5.56;92.15
72157;BME280;60035;52.122;5.406;2023-02-16T05:27:02;102432.31;;;5.55;91.79
72157;BME280;60035;52.122;5.406;2023-02-16T05:29:29;102430.59;;;5.54;91.68
72157;BME280;60035;52.122;5.406;2023-02-16T05:31:56;102434.81;;;5.52;92.18
72157;BME280;60035;52.122;5.406;2023-02-16T05:34:23;102424.66;;;5.54;92.06
72157;BME280;60035;52.122;5.406;2023-02-16T05:36:51;102426.34;;;5.53;91.88
72157;BME280;60035;52.122;5.406;2023-02-16T05:39:18;102427.16;;;5.50;92.23
72157;BME280;60035;52.122;5.406;2023-02-16T05:41:44;102432.25;;;5.50;91.89
72157;BME280;60035;52.122;5.406;2023-02-16T05:44:11;102440.69;;;5.49;92.19
72157;BME280;60035;52.122;5.406;2023-02-16T05:46:39;102437.25;;;5.47;92.36
72157;BME280;60035;52.122;5.406;2023-02-16T05:49:06;102440.66;;;5.48;92.14
72157;BME280;60035;52.122;5.406;2023-02-16T05:51:34;102444.03;;;5.47;92.24
72157;BME280;60035;52.122;5.406;2023-02-16T05:54:01;102444.84;;;5.46;92.63
72157;BME280;60035;52.122;5.406;2023-02-16T05:56:28;102438.97;;;5.48;92.46
72157;BME280;60035;52.122;5.406;2023-02-16T05:58:54;102431.34;;;5.48;92.30
72157;BME280;60035;52.122;5.406;2023-02-16T06:01:21;102437.25;;;5.47;92.28
72157;BME280;60035;52.122;5.406;2023-02-16T06:03:47;102444.03;;;5.47;92.61
72157;BME280;60035;52.122;5.406;2023-02-16T06:06:14;102451.66;;;5.48;92.27
72157;BME280;60035;52.122;5.406;2023-02-16T06:08:41;102442.31;;;5.46;92.34
72157;BME280;60035;52.122;5.406;2023-02-16T06:11:07;102438.91;;;5.45;92.65
72157;BME280;60035;52.122;5.406;2023-02-16T06:13:57;102438.91;;;5.45;92.58
72157;BME280;60035;52.122;5.406;2023-02-16T06:16:26;102444.00;;;5.45;92.60
72157;BME280;60035;52.122;5.406;2023-02-16T06:18:53;102446.53;;;5.44;92.22
72157;BME280;60035;52.122;5.406;2023-02-16T06:21:21;102449.09;;;5.45;92.72
72157;BME280;60035;52.122;5.406;2023-02-16T06:23:48;102444.00;;;5.45;92.62
72157;BME280;60035;52.122;5.406;2023-02-16T06:26:15;102447.38;;;5.46;92.50
72157;BME280;60035;52.122;5.406;2023-02-16T06:28:42;102449.09;;;5.45;92.64
72157;BME280;60035;52.122;5.406;2023-02-16T06:31:13;102449.09;;;5.47;92.63
72157;BME280;60035;52.122;5.406;2023-02-16T06:33:39;102444.84;;;5.46;92.99
72157;BME280;60035;52.122;5.406;2023-02-16T06:36:06;102447.38;;;5.46;92.94
72157;BME280;60035;52.122;5.406;2023-02-16T06:38:33;102455.00;;;5.46;92.98
72157;BME280;60035;52.122;5.406;2023-02-16T06:41:00;102462.59;;;5.44;92.71
72157;BME280;60035;52.122;5.406;2023-02-16T06:43:27;102455.81;;;5.45;93.01
72157;BME280;60035;52.122;5.406;2023-02-16T06:45:56;102458.38;;;5.45;92.84
72157;BME280;60035;52.122;5.406;2023-02-16T06:48:22;102459.25;;;5.45;93.05
72157;BME280;60035;52.122;5.406;2023-02-16T06:50:49;102455.00;;;5.46;93.18
72157;BME280;60035;52.122;5.406;2023-02-16T06:53:16;102453.34;;;5.46;93.34
72157;BME280;60035;52.122;5.406;2023-02-16T06:55:43;102447.41;;;5.47;93.36
72157;BME280;60035;52.122;5.406;2023-02-16T06:58:09;102441.47;;;5.47;93.44
72157;BME280;60035;52.122;5.406;2023-02-16T07:00:36;102450.81;;;5.48;93.36
72157;BME280;60035;52.122;5.406;2023-02-16T07:03:03;102444.88;;;5.47;93.35
72157;BME280;60035;52.122;5.406;2023-02-16T07:05:30;102449.16;;;5.50;93.54
72157;BME280;60035;52.122;5.406;2023-02-16T07:07:56;102450.03;;;5.52;93.24
72157;BME280;60035;52.122;5.406;2023-02-16T07:10:23;102461.94;;;5.55;93.24
72157;BME280;60035;52.122;5.406;2023-02-16T07:12:50;102461.16;;;5.59;93.25
72157;BME280;60035;52.122;5.406;2023-02-16T07:15:16;102460.38;;;5.61;93.74
72157;BME280;60035;52.122;5.406;2023-02-16T07:17:43;102457.06;;;5.65;93.49
72157;BME280;60035;52.122;5.406;2023-02-16T07:20:10;102452.88;;;5.69;93.52
72157;BME280;60035;52.122;5.406;2023-02-16T07:22:38;102463.06;;;5.71;93.46
72157;BME280;60035;52.122;5.406;2023-02-16T07:25:05;102458.91;;;5.74;93.12
72157;BME280;60035;52.122;5.406;2023-02-16T07:27:32;102466.56;;;5.77;93.21
72157;BME280;60035;52.122;5.406;2023-02-16T07:29:58;102470.88;;;5.81;93.29
72157;BME280;60035;52.122;5.406;2023-02-16T07:32:25;102468.34;;;5.83;93.16
72157;BME280;60035;52.122;5.406;2023-02-16T07:34:52;102465.91;;;5.88;92.83
72157;BME280;60035;52.122;5.406;2023-02-16T07:37:19;102468.47;;;5.89;92.91
72157;BME280;60035;52.122;5.406;2023-02-16T07:39:45;102473.59;;;5.92;93.15
72157;BME280;60035;52.122;5.406;2023-02-16T07:42:12;102475.34;;;5.96;92.79
72157;BME280;60035;52.122;5.406;2023-02-16T07:44:38;102477.97;;;5.99;93.10
72157;BME280;60035;52.122;5.406;2023-02-16T07:47:05;102480.56;;;6.03;93.00
72157;BME280;60035;52.122;5.406;2023-02-16T07:49:31;102485.69;;;6.06;92.79
72157;BME280;60035;52.122;5.406;2023-02-16T07:51:58;102484.06;;;6.09;92.97
72157;BME280;60035;52.122;5.406;2023-02-16T07:54:24;102474.78;;;6.11;92.59
72157;BME280;60035;52.122;5.406;2023-02-16T07:56:51;102473.97;;;6.14;92.76
72157;BME280;60035;52.122;5.406;2023-02-16T07:59:17;102485.03;;;6.17;92.54
72157;BME280;60035;52.122;5.406;2023-02-16T08:01:44;102484.22;;;6.20;92.50
72157;BME280;60035;52.122;5.406;2023-02-16T08:04:11;102487.66;;;6.24;92.50
72157;BME280;60035;52.122;5.406;2023-02-16T08:06:37;102491.13;;;6.27;92.43
72157;BME280;60035;52.122;5.406;2023-02-16T08:09:04;102492.00;;;6.31;92.31
72157;BME280;60035;52.122;5.406;2023-02-16T08:11:31;102497.16;;;6.34;92.36
72157;BME280;60035;52.122;5.406;2023-02-16T08:13:58;102500.59;;;6.38;92.42
72157;BME280;60035;52.122;5.406;2023-02-16T08:16:27;102501.50;;;6.41;92.06
72157;BME280;60035;52.122;5.406;2023-02-16T08:18:55;102501.56;;;6.44;91.82
72157;BME280;60035;52.122;5.406;2023-02-16T08:21:27;102496.50;;;6.47;91.65
72157;BME280;60035;52.122;5.406;2023-02-16T08:24:06;102499.91;;;6.49;91.53
72157;BME280;60035;52.122;5.406;2023-02-16T08:26:39;102500.81;;;6.52;91.84
72157;BME280;60035;52.122;5.406;2023-02-16T08:29:07;102503.38;;;6.55;91.40
72157;BME280;60035;52.122;5.406;2023-02-16T08:31:38;102504.28;;;6.57;91.83
72157;BME280;60035;52.122;5.406;2023-02-16T08:34:15;102503.47;;;6.59;91.56
72157;BME280;60035;52.122;5.406;2023-02-16T08:36:43;102501.81;;;6.63;91.57
72157;BME280;60035;52.122;5.406;2023-02-16T08:39:15;102508.59;;;6.64;91.31
72157;BME280;60035;52.122;5.406;2023-02-16T08:41:44;102510.31;;;6.66;91.40
72157;BME280;60035;52.122;5.406;2023-02-16T08:44:12;102512.06;;;6.67;91.22
72157;BME280;60035;52.122;5.406;2023-02-16T08:46:40;102509.53;;;6.69;90.95
72157;BME280;60035;52.122;5.406;2023-02-16T08:49:09;102507.03;;;6.72;91.06
72157;BME280;60035;52.122;5.406;2023-02-16T08:51:41;102520.63;;;6.74;91.03
72157;BME280;60035;52.122;5.406;2023-02-16T08:54:08;102518.06;;;6.74;91.01
72157;BME280;60035;52.122;5.406;2023-02-16T08:56:38;102518.94;;;6.75;90.92
72157;BME280;60035;52.122;5.406;2023-02-16T08:59:05;102510.44;;;6.76;90.97
72157;BME280;60035;52.122;5.406;2023-02-16T09:01:31;102513.00;;;6.77;91.34
72157;BME280;60035;52.122;5.406;2023-02-16T09:03:58;102513.00;;;6.77;90.76
72157;BME280;60035;52.122;5.406;2023-02-16T09:06:24;102513.91;;;6.78;91.14
72157;BME280;60035;52.122;5.406;2023-02-16T09:08:52;102523.25;;;6.79;91.17
72157;BME280;60035;52.122;5.406;2023-02-16T09:11:20;102517.28;;;6.78;91.51
72157;BME280;60035;52.122;5.406;2023-02-16T09:13:47;102522.38;;;6.78;91.87
72157;BME280;60035;52.122;5.406;2023-02-16T09:16:16;102520.63;;;6.76;92.39
72157;BME280;60035;52.122;5.406;2023-02-16T09:18:45;102525.72;;;6.74;92.27
72157;BME280;60035;52.122;5.406;2023-02-16T09:21:20;102530.78;;;6.73;92.83
72157;BME280;60035;52.122;5.406;2023-02-16T09:23:48;102528.22;;;6.71;93.35
72157;BME280;60035;52.122;5.406;2023-02-16T09:26:17;102532.44;;;6.69;94.02
72157;BME280;60035;52.122;5.406;2023-02-16T09:28:44;102534.13;;;6.67;94.26
72157;BME280;60035;52.122;5.406;2023-02-16T09:31:32;102521.31;;;6.64;95.06
72157;BME280;60035;52.122;5.406;2023-02-16T09:36:32;102509.47;;;6.63;95.72
72157;BME280;60035;52.122;5.406;2023-02-16T09:38:59;102504.38;;;6.63;96.68
72157;BME280;60035;52.122;5.406;2023-02-16T09:45:08;102518.84;;;6.67;97.34
72157;BME280;60035;52.122;5.406;2023-02-16T09:47:39;102522.25;;;6.71;98.01
72157;BME280;60035;52.122;5.406;2023-02-16T09:50:27;102515.47;;;6.70;98.31
72157;BME280;60035;52.122;5.406;2023-02-16T09:53:21;102518.06;;;6.73;98.29
72157;BME280;60035;52.122;5.406;2023-02-16T09:56:07;102523.16;;;6.74;98.76
72157;BME280;60035;52.122;5.406;2023-02-16T09:58:43;102524.84;;;6.72;99.01
72157;BME280;60035;52.122;5.406;2023-02-16T10:01:29;102523.13;;;6.70;98.81
72157;BME280;60035;52.122;5.406;2023-02-16T10:04:13;102516.28;;;6.67;99.20
72157;BME280;60035;52.122;5.406;2023-02-16T10:09:31;102528.16;;;6.66;99.98
72157;BME280;60035;52.122;5.406;2023-02-16T10:12:08;102539.16;;;6.64;99.97
72157;BME280;60035;52.122;5.406;2023-02-16T10:14:55;102528.91;;;6.59;100.00
72157;BME280;60035;52.122;5.406;2023-02-16T10:17:31;102530.63;;;6.60;100.00
72157;BME280;60035;52.122;5.406;2023-02-16T10:20:10;102538.34;;;6.66;100.00
72157;BME280;60035;52.122;5.406;2023-02-16T10:22:48;102526.53;;;6.72;100.00
72157;BME280;60035;52.122;5.406;2023-02-16T10:25:17;102519.78;;;6.75;100.00
72157;BME280;60035;52.122;5.406;2023-02-16T10:27:53;102516.44;;;6.79;100.00
72157;BME280;60035;52.122;5.406;2023-02-16T10:34:04;102520.97;;;6.99;100.00
72157;BME280;60035;52.122;5.406;2023-02-16T10:36:52;102522.75;;;7.08;100.00
72157;BME280;60035;52.122;5.406;2023-02-16T10:39:42;102519.44;;;7.13;100.00
72157;BME280;60035;52.122;5.406;2023-02-16T10:45:16;102518.66;;;7.22;100.00
72157;BME280;60035;52.122;5.406;2023-02-16T10:47:45;102517.94;;;7.31;100.00
72157;BME280;60035;52.122;5.406;2023-02-16T10:50:22;102518.84;;;7.36;100.00
72157;BME280;60035;52.122;5.406;2023-02-16T10:52:52;102522.31;;;7.41;100.00
72157;BME280;60035;52.122;5.406;2023-02-16T10:55:21;102524.06;;;7.47;100.00
72157;BME280;60035;52.122;5.406;2023-02-16T10:58:00;102522.41;;;7.50;100.00
72157;BME280;60035;52.122;5.406;2023-02-16T11:03:12;102505.47;;;7.57;100.00
72157;BME280;60035;52.122;5.406;2023-02-16T11:05:39;102501.28;;;7.65;100.00
72157;BME280;60035;52.122;5.406;2023-02-16T11:08:08;102495.44;;;7.74;100.00
72157;BME280;60035;52.122;5.406;2023-02-16T11:10:47;102496.34;;;7.81;100.00
72157;BME280;60035;52.122;5.406;2023-02-16T11:13:35;102496.41;;;7.89;100.00
72157;BME280;60035;52.122;5.406;2023-02-16T11:16:10;102501.50;;;7.89;100.00
72157;BME280;60035;52.122;5.406;2023-02-16T11:18:41;102487.94;;;7.93;100.00
72157;BME280;60035;52.122;5.406;2023-02-16T11:21:09;102484.56;;;7.98;100.00
72157;BME280;60035;52.122;5.406;2023-02-16T11:23:41;102480.38;;;8.05;100.00
72157;BME280;60035;52.122;5.406;2023-02-16T11:28:38;102473.59;;;8.07;100.00
72157;BME280;60035;52.122;5.406;2023-02-16T11:31:10;102469.38;;;8.12;100.00
72157;BME280;60035;52.122;5.406;2023-02-16T11:33:40;102472.78;;;8.13;100.00
72157;BME280;60035;52.122;5.406;2023-02-16T11:36:32;102472.78;;;8.17;100.00
72157;BME280;60035;52.122;5.406;2023-02-16T11:39:04;102465.19;;;8.24;100.00
72157;BME280;60035;52.122;5.406;2023-02-16T11:41:32;102474.56;;;8.26;100.00
72157;BME280;60035;52.122;5.406;2023-02-16T11:44:01;102461.81;;;8.28;100.00
72157;BME280;60035;52.122;5.406;2023-02-16T11:46:37;102470.34;;;8.33;100.00
72157;BME280;60035;52.122;5.406;2023-02-16T11:49:32;102474.66;;;8.40;100.00
72157;BME280;60035;52.122;5.406;2023-02-16T11:52:00;102462.75;;;8.44;100.00
72157;BME280;60035;52.122;5.406;2023-02-16T11:54:55;102456.84;;;8.48;100.00
72157;BME280;60035;52.122;5.406;2023-02-16T11:57:31;102456.88;;;8.51;100.00
72157;BME280;60035;52.122;5.406;2023-02-16T12:00:03;102460.28;;;8.52;100.00
72157;BME280;60035;52.122;5.406;2023-02-16T12:05:24;102448.44;;;8.61;100.00
72157;BME280;60035;52.122;5.406;2023-02-16T12:16:43;102438.31;;;8.97;100.00
72157;BME280;60035;52.122;5.406;2023-02-16T12:22:25;102423.03;;;9.09;100.00
72157;BME280;60035;52.122;5.406;2023-02-16T12:27:54;102404.31;;;9.37;100.00
72157;BME280;60035;52.122;5.406;2023-02-16T12:43:33;102375.28;;;10.10;96.46
72157;BME280;60035;52.122;5.406;2023-02-16T12:46:35;102371.88;;;10.10;95.31
72157;BME280;60035;52.122;5.406;2023-02-16T12:52:34;102361.63;;;10.13;94.99
72157;BME280;60035;52.122;5.406;2023-02-16T12:55:31;102354.78;;;10.23;95.01
72157;BME280;60035;52.122;5.406;2023-02-16T12:58:09;102353.03;;;10.29;94.68
72157;BME280;60035;52.122;5.406;2023-02-16T13:00:43;102350.44;;;10.45;94.66
72157;BME280;60035;52.122;5.406;2023-02-16T13:05:40;102353.03;;;10.40;93.19
72157;BME280;60035;52.122;5.406;2023-02-16T13:08:15;102359.84;;;10.43;93.34
72157;BME280;60035;52.122;5.406;2023-02-16T13:10:56;102351.25;;;10.52;92.80
72157;BME280;60035;52.122;5.406;2023-02-16T13:13:26;102355.53;;;10.51;92.41
72157;BME280;60035;52.122;5.406;2023-02-16T13:16:10;102350.44;;;10.37;92.51
72157;BME280;60035;52.122;5.406;2023-02-16T13:18:54;102340.19;;;10.43;92.70
72157;BME280;60035;52.122;5.406;2023-02-16T13:21:43;102346.97;;;10.55;92.68
72157;BME280;60035;52.122;5.406;2023-02-16T13:24:30;102342.75;;;10.49;92.45
72157;BME280;60035;52.122;5.406;2023-02-16T13:40:35;102296.53;;;10.63;92.38
72157;BME280;60035;52.122;5.406;2023-02-16T13:45:53;102299.91;;;10.75;92.18
72157;BME280;60035;52.122;5.406;2023-02-16T13:50:58;102280.94;;;10.97;91.33
72157;BME280;60035;52.122;5.406;2023-02-16T13:53:29;102276.66;;;10.98;90.07
72157;BME280;60035;52.122;5.406;2023-02-16T13:58:51;102273.22;;;10.99;89.41
72157;BME280;60035;52.122;5.406;2023-02-16T14:03:53;102274.97;;;10.94;88.97
72157;BME280;60035;52.122;5.406;2023-02-16T14:22:48;102268.19;;;10.93;87.72
72157;BME280;60035;52.122;5.406;2023-02-16T14:27:50;102264.72;;;10.97;88.00
72157;BME280;60035;52.122;5.406;2023-02-16T14:30:18;102250.97;;;11.04;87.54
72157;BME280;60035;52.122;5.406;2023-02-16T14:33:06;102244.13;;;11.08;87.45
72157;BME280;60035;52.122;5.406;2023-02-16T14:35:45;102239.81;;;11.11;87.68
72157;BME280;60035;52.122;5.406;2023-02-16T14:38:16;102244.94;;;11.11;87.19
72157;BME280;60035;52.122;5.406;2023-02-16T14:40:56;102243.25;;;11.09;87.10
72157;BME280;60035;52.122;5.406;2023-02-16T14:43:24;102238.94;;;11.11;87.55
72157;BME280;60035;52.122;5.406;2023-02-16T14:51:47;102235.53;;;11.12;87.19
72157;BME280;60035;52.122;5.406;2023-02-16T14:54:35;102241.56;;;11.08;87.14
72157;BME280;60035;52.122;5.406;2023-02-16T14:57:13;102248.44;;;11.01;86.82
72157;BME280;60035;52.122;5.406;2023-02-16T14:59:54;102247.63;;;10.97;86.37
72157;BME280;60035;52.122;5.406;2023-02-16T15:02:24;102247.66;;;10.91;85.71
72157;BME280;60035;52.122;5.406;2023-02-16T15:04:51;102253.69;;;10.87;86.07
72157;BME280;60035;52.122;5.406;2023-02-16T15:07:19;102254.53;;;10.86;86.20
72157;BME280;60035;52.122;5.406;2023-02-16T15:09:48;102256.28;;;10.82;85.99
72157;BME280;60035;52.122;5.406;2023-02-16T15:12:26;102245.25;;;10.76;86.36
72157;BME280;60035;52.122;5.406;2023-02-16T15:15:02;102250.44;;;10.66;86.78
72157;BME280;60035;52.122;5.406;2023-02-16T15:17:39;102239.38;;;10.60;87.19
72157;BME280;60035;52.122;5.406;2023-02-16T15:20:16;102246.25;;;10.53;87.57
72157;BME280;60035;52.122;5.406;2023-02-16T15:22:49;102245.44;;;10.45;88.45
72157;BME280;60035;52.122;5.406;2023-02-16T15:25:25;102249.75;;;10.37;89.52
72157;BME280;60035;52.122;5.406;2023-02-16T15:28:01;102245.50;;;10.28;90.96